Time;durP1;ratioP1;P1;durP2;ratioP2;P2;SDS_P1;SDS_P2;PMS_P1;PMS_P2;Temp;Humidity;BMP_temperature;BMP_pressure;BME280_temperature;BME280_humidity;BME280_pressure;Samples;Min_cycle;Max_cycle;Signal;HPM_P1;HPM_P2
2023/05/04 03:59:12;;;;;;;35.37;32.10;;;7.70;99.90;;;;;;5040325;23;20478;-74
2023/05/04 04:01:39;;;;;;;33.07;30.37;;;7.80;99.90;;;;;;4968877;28;20792;-74
2023/05/04 04:04:06;;;;;;;35.03;31.63;;;7.90;99.90;;;;;;4968432;28;20490;-74
2023/05/04 04:06:32;;;;;;;36.40;29.17;;;7.90;99.90;;;;;;4969092;28;20455;-73
2023/05/04 04:08:59;;;;;;;34.57;31.70;;;7.90;99.90;;;;;;4968933;28;20949;-73
2023/05/04 04:11:26;;;;;;;35.20;31.90;;;7.90;99.90;;;;;;4966883;28;20474;-73
2023/05/04 04:13:53;;;;;;;35.17;32.20;;;7.80;99.90;;;;;;4968852;28;20556;-73
2023/05/04 04:16:21;;;;;;;34.63;31.43;;;7.90;99.90;;;;;;4971898;28;20458;-75
2023/05/04 04:18:48;;;;;;;34.20;31.30;;;7.90;99.90;;;;;;4972488;28;20463;-74
2023/05/04 04:21:15;;;;;;;35.60;32.27;;;8.00;99.90;;;;;;4972507;28;20448;-75
2023/05/04 04:23:41;;;;;;;36.47;33.27;;;8.00;99.90;;;;;;4972095;28;20462;-74
2023/05/04 04:26:09;;;;;;;37.27;33.77;;;8.00;99.90;;;;;;4971361;28;20487;-75
2023/05/04 04:28:36;;;;;;;36.13;32.60;;;8.00;99.90;;;;;;4972091;28;20508;-75
2023/05/04 04:31:03;;;;;;;36.60;32.80;;;8.10;99.90;;;;;;4971912;28;20451;-74
2023/05/04 04:33:31;;;;;;;33.73;30.60;;;8.20;99.90;;;;;;4972201;28;20470;-72
2023/05/04 04:35:58;;;;;;;36.73;33.13;;;8.10;99.90;;;;;;4972041;28;20451;-72
2023/05/04 04:38:25;;;;;;;32.57;29.37;;;8.20;99.90;;;;;;4971901;28;20514;-72
2023/05/04 04:40:51;;;;;;;31.50;28.70;;;8.20;99.90;;;;;;4971857;28;20781;-72
2023/05/04 04:43:18;;;;;;;31.57;29.07;;;8.30;99.90;;;;;;4971275;28;20466;-72
2023/05/04 04:45:45;;;;;;;36.23;32.60;;;8.40;99.90;;;;;;4971615;28;20495;-72
2023/05/04 04:48:12;;;;;;;33.40;30.47;;;8.50;99.90;;;;;;4971921;28;20459;-72
2023/05/04 04:50:41;;;;;;;34.60;31.50;;;8.80;99.90;;;;;;4970944;28;20467;-72
2023/05/04 04:53:07;;;;;;;33.90;30.93;;;9.10;99.90;;;;;;4970143;28;20941;-72
2023/05/04 04:55:34;;;;;;;33.97;30.67;;;9.40;99.90;;;;;;4965629;28;20477;-75
2023/05/04 04:58:01;;;;;;;32.60;29.30;;;9.70;99.90;;;;;;4951198;29;20497;-72
2023/05/04 05:00:28;;;;;;;33.43;30.57;;;9.90;99.90;;;;;;4962967;28;20590;-72
2023/05/04 05:02:55;;;;;;;30.77;28.23;;;10.10;99.90;;;;;;4970529;28;20460;-72
2023/05/04 05:05:22;;;;;;;27.73;25.37;;;10.20;99.90;;;;;;4969953;28;20487;-72
2023/05/04 05:07:50;;;;;;;35.10;27.47;;;10.40;99.90;;;;;;4970767;28;20495;-72
2023/05/04 05:10:17;;;;;;;29.20;26.17;;;10.70;99.90;;;;;;4970640;28;20460;-73
2023/05/04 05:12:43;;;;;;;26.97;24.47;;;11.00;99.90;;;;;;4971019;28;20964;-74
2023/05/04 05:15:11;;;;;;;27.37;25.00;;;11.20;99.90;;;;;;4970091;28;20455;-72
2023/05/04 05:17:38;;;;;;;27.93;25.13;;;11.50;99.90;;;;;;4969917;28;20896;-74
2023/05/04 05:20:08;;;;;;;27.00;24.60;;;11.80;99.90;;;;;;4969981;28;20949;-73
2023/05/04 05:22:35;;;;;;;27.07;22.33;;;12.10;99.90;;;;;;4970345;28;20534;-74
2023/05/04 05:25:04;;;;;;;25.97;23.47;;;12.40;99.90;;;;;;4969885;28;21021;-74
2023/05/04 05:27:30;;;;;;;24.23;21.70;;;12.90;99.90;;;;;;4969375;28;20965;-75
2023/05/04 05:29:58;;;;;;;26.07;23.80;;;13.20;99.90;;;;;;4969756;28;20452;-74
2023/05/04 05:32:24;;;;;;;24.37;22.37;;;13.60;99.90;;;;;;4970095;28;20459;-74
2023/05/04 05:34:51;;;;;;;25.57;23.50;;;13.90;99.90;;;;;;4970073;28;20463;-74
2023/05/04 05:37:18;;;;;;;23.80;21.30;;;14.20;99.90;;;;;;4970245;28;20456;-73
2023/05/04 05:39:44;;;;;;;28.47;25.77;;;14.60;99.90;;;;;;4970206;28;20455;-76
2023/05/04 05:42:12;;;;;;;26.37;23.93;;;14.60;99.90;;;;;;4969620;28;20467;-75
2023/05/04 05:44:39;;;;;;;27.30;24.70;;;15.00;99.90;;;;;;4969572;28;20495;-74
2023/05/04 05:47:07;;;;;;;25.27;22.73;;;15.70;99.90;;;;;;4969440;28;20448;-76
2023/05/04 05:49:33;;;;;;;23.93;22.03;;;16.00;99.90;;;;;;4970217;28;20842;-76
2023/05/04 05:52:00;;;;;;;25.90;23.73;;;16.20;99.90;;;;;;4970252;28;20499;-75
2023/05/04 05:54:30;;;;;;;26.57;24.30;;;16.50;99.90;;;;;;4970205;28;20496;-75
2023/05/04 05:56:56;;;;;;;25.20;22.80;;;17.00;99.90;;;;;;4969125;28;21017;-74
2023/05/04 05:59:24;;;;;;;27.03;24.33;;;17.20;99.90;;;;;;4969176;28;20491;-76
2023/05/04 06:01:51;;;;;;;23.80;21.83;;;17.70;99.90;;;;;;4969293;28;20918;-74
2023/05/04 06:04:18;;;;;;;26.30;24.03;;;17.90;99.20;;;;;;4969001;28;20977;-76
2023/05/04 06:06:45;;;;;;;26.40;24.20;;;18.40;97.90;;;;;;4969198;28;20495;-74
2023/05/04 06:09:12;;;;;;;26.80;24.60;;;18.70;96.90;;;;;;4969324;28;20448;-75
2023/05/04 06:11:39;;;;;;;26.17;24.33;;;19.00;96.00;;;;;;4969217;28;20474;-75
2023/05/04 16:41:29;;;;;;;16.60;15.70;;;24.40;53.40;;;;;;5882919;23;20483;-74
2023/05/04 16:43:56;;;;;;;16.50;15.70;;;24.30;53.20;;;;;;4971478;28;20451;-73
2023/05/04 16:46:23;;;;;;;16.67;15.80;;;24.30;53.50;;;;;;4973160;28;20518;-73
2023/05/04 16:48:49;;;;;;;16.47;15.50;;;24.20;53.60;;;;;;4972908;28;20941;-74
2023/05/04 16:51:16;;;;;;;17.73;16.63;;;24.10;53.60;;;;;;4972867;28;20478;-74
2023/05/04 16:53:43;;;;;;;15.93;15.13;;;24.10;53.80;;;;;;4972891;28;20452;-73
2023/05/04 16:56:16;;;;;;;17.20;15.90;;;23.90;54.30;;;;;;4973117;28;20851;-73
2023/05/04 16:58:44;;;;;;;16.37;15.47;;;23.80;54.40;;;;;;4972929;28;20456;-75
2023/05/04 17:01:11;;;;;;;17.70;16.70;;;23.90;54.30;;;;;;4972861;28;20491;-73
2023/05/04 17:03:38;;;;;;;17.13;16.10;;;23.90;54.70;;;;;;4973259;28;20467;-74
2023/05/04 17:06:05;;;;;;;16.97;16.10;;;23.90;54.00;;;;;;4972615;28;20487;-73
2023/05/04 17:08:33;;;;;;;18.07;16.77;;;23.80;54.80;;;;;;4972633;28;20456;-73
2023/05/04 17:11:00;;;;;;;16.97;16.17;;;23.70;54.20;;;;;;4971866;28;20832;-73
2023/05/04 17:13:27;;;;;;;17.13;16.33;;;23.70;55.10;;;;;;4968318;28;20468;-74
2023/05/04 17:15:55;;;;;;;16.80;15.90;;;23.60;55.40;;;;;;4972319;28;20451;-74
2023/05/04 17:18:21;;;;;;;16.13;15.33;;;23.70;55.10;;;;;;4972432;28;20452;-74
2023/05/04 17:20:48;;;;;;;16.67;15.80;;;23.70;55.00;;;;;;4972083;28;20462;-74
2023/05/04 17:23:15;;;;;;;18.00;16.90;;;23.70;54.80;;;;;;4971497;28;20524;-74
2023/05/04 17:25:43;;;;;;;17.97;16.97;;;23.70;55.30;;;;;;4972104;28;20484;-74
2023/05/04 17:28:09;;;;;;;14.90;14.30;;;23.60;54.90;;;;;;4971987;28;20464;-74
2023/05/04 17:30:36;;;;;;;17.20;16.03;;;23.60;55.40;;;;;;4972141;28;20462;-74
2023/05/04 17:33:04;;;;;;;16.67;15.70;;;23.50;56.10;;;;;;4971574;28;20550;-74
2023/05/04 17:35:31;;;;;;;15.73;14.73;;;23.40;56.50;;;;;;4971511;28;20456;-73
2023/05/04 17:37:58;;;;;;;16.13;15.33;;;23.30;56.60;;;;;;4971656;28;20577;-73
2023/05/04 17:40:25;;;;;;;16.27;15.27;;;23.30;57.10;;;;;;4971542;28;20476;-73
2023/05/04 17:42:52;;;;;;;15.00;14.20;;;23.20;56.90;;;;;;4971524;28;20848;-72
2023/05/04 17:45:19;;;;;;;16.93;16.00;;;23.10;57.20;;;;;;4971139;28;20461;-73
2023/05/04 17:47:46;;;;;;;16.40;15.40;;;23.00;57.00;;;;;;4971380;28;20451;-73
2023/05/04 17:50:14;;;;;;;17.70;16.57;;;22.90;57.20;;;;;;4971380;28;20459;-73
2023/05/04 17:52:41;;;;;;;18.47;17.27;;;22.90;57.60;;;;;;4971457;28;20466;-73
2023/05/04 17:55:08;;;;;;;18.43;17.23;;;22.80;57.60;;;;;;4971236;28;20832;-73
2023/05/04 17:57:35;;;;;;;16.47;15.60;;;22.70;58.30;;;;;;4971089;28;20552;-73
2023/05/04 18:00:03;;;;;;;16.30;15.40;;;22.70;58.80;;;;;;4969888;28;20440;-74
2023/05/04 18:02:30;;;;;;;16.47;15.67;;;22.60;58.90;;;;;;4974489;28;20571;-74
2023/05/04 18:04:57;;;;;;;15.27;14.57;;;22.50;59.40;;;;;;4976401;28;20519;-74
2023/05/04 18:07:25;;;;;;;16.50;15.60;;;22.40;59.60;;;;;;4969364;28;21036;-73
2023/05/04 18:09:52;;;;;;;15.63;14.83;;;22.40;59.40;;;;;;4971267;28;20456;-73
2023/05/04 18:12:18;;;;;;;15.67;14.77;;;22.20;59.80;;;;;;4965708;28;20531;-73
2023/05/04 18:14:45;;;;;;;15.90;15.00;;;22.20;60.30;;;;;;4971092;28;20459;-73
2023/05/04 18:17:12;;;;;;;15.40;14.60;;;22.10;61.20;;;;;;4968659;28;20456;-73
2023/05/04 18:19:38;;;;;;;15.40;14.40;;;22.00;62.10;;;;;;4970740;28;20443;-73
2023/05/04 18:22:05;;;;;;;15.37;14.57;;;21.80;62.00;;;;;;4970557;28;20796;-74
2023/05/04 18:24:33;;;;;;;15.57;14.77;;;21.80;63.10;;;;;;4970368;28;20460;-73
2023/05/04 18:27:00;;;;;;;16.40;15.60;;;21.60;63.40;;;;;;4969978;28;20480;-73
2023/05/04 18:29:27;;;;;;;16.53;15.63;;;21.50;64.00;;;;;;4969984;28;20514;-73
2023/05/04 18:31:54;;;;;;;14.77;14.07;;;21.40;64.50;;;;;;4967837;28;20450;-74
2023/05/04 18:34:20;;;;;;;15.23;14.53;;;21.30;65.10;;;;;;4970213;28;20483;-75
2023/05/04 18:36:47;;;;;;;15.77;14.33;;;21.30;65.70;;;;;;4970128;28;20852;-74
2023/05/04 18:39:14;;;;;;;14.57;13.73;;;21.20;66.30;;;;;;4967977;28;20471;-73
2023/05/04 18:41:42;;;;;;;14.30;13.50;;;21.10;67.30;;;;;;4969777;28;20492;-74
2023/05/04 18:44:09;;;;;;;14.67;13.87;;;20.90;67.90;;;;;;4970117;28;20460;-73
2023/05/04 18:46:36;;;;;;;14.40;13.70;;;20.90;68.40;;;;;;4969584;28;20483;-74
2023/05/04 18:49:02;;;;;;;14.30;13.37;;;20.70;69.10;;;;;;4969815;28;20448;-74
2023/05/04 18:51:29;;;;;;;14.17;13.57;;;20.50;69.70;;;;;;4969833;28;20913;-74
2023/05/04 18:53:56;;;;;;;13.53;12.93;;;20.60;70.50;;;;;;4969897;28;20968;-74
2023/05/04 18:56:23;;;;;;;14.83;13.93;;;20.50;70.90;;;;;;4970073;28;20503;-73
2023/05/04 18:58:51;;;;;;;14.93;14.20;;;20.50;71.20;;;;;;4969697;28;20459;-74
2023/05/04 19:01:18;;;;;;;15.07;14.27;;;20.40;71.80;;;;;;4970023;28;20456;-74
2023/05/04 19:03:45;;;;;;;14.80;14.00;;;20.30;72.20;;;;;;4970042;28;20440;-74
2023/05/04 19:06:12;;;;;;;15.53;14.73;;;20.30;72.90;;;;;;4969924;28;20482;-74
2023/05/04 19:08:39;;;;;;;17.70;13.90;;;20.30;73.30;;;;;;4970152;28;20448;-73
2023/05/04 19:11:06;;;;;;;15.27;14.33;;;20.20;73.80;;;;;;4970102;28;20435;-74
2023/05/04 19:13:33;;;;;;;15.40;14.53;;;20.10;74.40;;;;;;4965944;28;20458;-74
2023/05/04 19:16:01;;;;;;;17.07;15.40;;;20.00;75.40;;;;;;4969559;28;20697;-74
2023/05/04 19:18:28;;;;;;;15.60;14.70;;;19.90;76.00;;;;;;4970159;28;20452;-74
2023/05/04 19:20:54;;;;;;;15.10;14.20;;;19.80;77.20;;;;;;4967714;28;20452;-74
2023/05/04 19:23:23;;;;;;;17.40;16.23;;;19.70;78.40;;;;;;4970173;28;20957;-75
2023/05/04 19:25:50;;;;;;;15.50;14.60;;;19.60;79.70;;;;;;4969481;28;20448;-74
2023/05/04 19:28:17;;;;;;;15.13;14.33;;;19.50;80.50;;;;;;4969755;28;20586;-76
2023/05/04 19:30:43;;;;;;;16.63;15.67;;;19.50;81.60;;;;;;4969766;28;20439;-74
2023/05/04 19:33:11;;;;;;;15.70;14.67;;;19.50;82.60;;;;;;4969807;28;20448;-75
2023/05/04 19:35:38;;;;;;;15.30;14.40;;;19.60;83.00;;;;;;4970041;28;20447;-74
2023/05/04 19:38:05;;;;;;;15.57;14.77;;;19.50;83.60;;;;;;4969604;28;20526;-74
2023/05/04 19:40:35;;;;;;;14.90;13.97;;;19.50;84.10;;;;;;4969448;28;20525;-75
2023/05/04 19:43:02;;;;;;;15.40;14.53;;;19.60;84.70;;;;;;4969633;28;20767;-75
2023/05/04 19:45:30;;;;;;;16.20;15.03;;;19.50;84.90;;;;;;4970300;28;20448;-75
2023/05/04 19:47:57;;;;;;;15.07;14.37;;;19.50;85.80;;;;;;4973460;28;20495;-74
2023/05/04 19:50:26;;;;;;;16.60;15.60;;;19.50;86.40;;;;;;4973683;28;20455;-74
2023/05/04 19:52:52;;;;;;;17.17;15.53;;;19.50;87.50;;;;;;4973837;28;20440;-74
2023/05/04 19:55:20;;;;;;;14.90;14.10;;;19.40;88.20;;;;;;4973346;28;20439;-74
2023/05/04 19:57:48;;;;;;;15.67;14.77;;;19.40;88.70;;;;;;4973402;28;20827;-74
2023/05/04 20:00:18;;;;;;;16.53;15.67;;;19.30;89.50;;;;;;4970941;28;20444;-74
2023/05/04 20:02:45;;;;;;;16.77;15.87;;;19.30;89.90;;;;;;4972280;28;20994;-74
2023/05/04 20:05:12;;;;;;;16.77;15.40;;;19.30;90.10;;;;;;4972049;28;20452;-74
2023/05/04 20:07:40;;;;;;;16.30;15.27;;;19.30;90.20;;;;;;4970815;28;20578;-74
2023/05/04 20:10:07;;;;;;;15.47;14.63;;;19.20;90.50;;;;;;4971950;28;20470;-74
2023/05/04 20:12:34;;;;;;;16.73;15.70;;;19.20;90.80;;;;;;4971978;28;20480;-74
2023/05/04 20:15:01;;;;;;;16.93;15.93;;;19.10;90.90;;;;;;4972883;28;20451;-75
2023/05/04 20:17:28;;;;;;;17.03;15.27;;;19.10;91.20;;;;;;4973044;28;20440;-74
2023/05/04 20:19:55;;;;;;;15.83;14.77;;;19.00;91.50;;;;;;4973824;28;20454;-72
2023/05/04 20:22:22;;;;;;;16.97;15.87;;;19.00;91.50;;;;;;4973696;28;20806;-73
2023/05/04 20:24:50;;;;;;;15.80;14.80;;;19.00;91.70;;;;;;4973648;28;20446;-76
2023/05/04 20:27:16;;;;;;;16.20;15.20;;;18.90;92.10;;;;;;4973532;28;20609;-76
2023/05/04 20:29:44;;;;;;;17.37;16.07;;;18.80;92.30;;;;;;4973421;28;20462;-75
2023/05/04 20:32:10;;;;;;;16.27;15.23;;;18.80;92.50;;;;;;4973529;28;20502;-75
2023/05/04 20:34:38;;;;;;;16.60;15.60;;;18.80;92.60;;;;;;4973425;28;20448;-74
2023/05/04 20:37:05;;;;;;;15.20;14.33;;;18.80;92.90;;;;;;4973233;28;20530;-75
2023/05/04 20:39:32;;;;;;;15.77;14.60;;;18.70;93.00;;;;;;4973205;28;20447;-75
2023/05/04 20:42:00;;;;;;;18.10;16.93;;;18.70;93.20;;;;;;4972746;28;20507;-74
2023/05/04 20:44:26;;;;;;;17.23;16.03;;;18.70;93.20;;;;;;4973029;28;20551;-74
2023/05/04 20:46:53;;;;;;;18.53;17.13;;;18.70;93.40;;;;;;4973148;28;20488;-74
2023/05/04 20:49:20;;;;;;;17.80;16.40;;;18.60;93.30;;;;;;4972830;28;20467;-74
2023/05/04 20:51:47;;;;;;;18.27;16.90;;;18.60;93.50;;;;;;4972871;28;20792;-75
2023/05/04 20:54:13;;;;;;;17.70;16.50;;;18.60;93.60;;;;;;4972811;28;20452;-74
2023/05/04 20:56:40;;;;;;;19.17;17.63;;;18.50;93.50;;;;;;4972100;28;20451;-74
2023/05/04 20:59:08;;;;;;;16.43;15.30;;;18.40;93.70;;;;;;4972537;28;20452;-74
2023/05/04 21:01:35;;;;;;;18.23;16.97;;;18.40;93.40;;;;;;4972762;28;20826;-74
2023/05/04 21:04:02;;;;;;;18.60;17.30;;;18.40;93.50;;;;;;4969903;28;20872;-74
2023/05/04 21:06:28;;;;;;;17.20;16.10;;;18.40;93.60;;;;;;4972399;28;20479;-74
2023/05/04 21:08:55;;;;;;;17.03;15.73;;;18.40;93.70;;;;;;4973028;28;20805;-74
2023/05/04 21:11:22;;;;;;;20.87;19.50;;;18.30;93.80;;;;;;4972536;28;20462;-74
2023/05/04 21:13:49;;;;;;;16.73;15.67;;;18.30;93.90;;;;;;4972456;28;20448;-74
2023/05/04 21:16:17;;;;;;;17.50;16.17;;;18.20;93.90;;;;;;4972529;28;20812;-73
2023/05/04 21:18:44;;;;;;;17.37;16.17;;;18.20;94.10;;;;;;4970036;28;20440;-73
2023/05/04 21:21:11;;;;;;;18.30;17.20;;;18.10;94.30;;;;;;4972340;28;20472;-73
2023/05/04 21:23:37;;;;;;;18.20;17.00;;;18.10;95.00;;;;;;4972273;28;20933;-74
2023/05/04 21:26:04;;;;;;;16.90;15.90;;;18.00;95.00;;;;;;4972075;28;20444;-74
2023/05/04 21:28:32;;;;;;;17.40;16.40;;;17.90;95.50;;;;;;4972254;28;20630;-74
2023/05/04 21:30:59;;;;;;;16.20;14.87;;;17.90;95.50;;;;;;4972262;28;20810;-74
2023/05/04 21:33:27;;;;;;;16.47;15.40;;;17.80;95.80;;;;;;4972181;28;20455;-73
2023/05/04 21:35:53;;;;;;;17.03;15.60;;;17.80;96.10;;;;;;4972316;28;20452;-73
2023/05/04 21:38:20;;;;;;;16.73;15.63;;;17.70;96.70;;;;;;4971823;28;20447;-73
2023/05/04 21:40:47;;;;;;;15.23;14.23;;;17.60;96.60;;;;;;4971905;28;20463;-74
2023/05/04 21:43:13;;;;;;;16.90;15.90;;;17.50;96.70;;;;;;4971687;28;20479;-73
2023/05/04 21:45:40;;;;;;;15.43;14.47;;;17.50;96.80;;;;;;4971893;28;20448;-73
2023/05/04 21:48:07;;;;;;;17.57;16.47;;;17.50;97.00;;;;;;4972035;28;20494;-73
2023/05/04 21:50:35;;;;;;;15.70;14.83;;;17.50;97.30;;;;;;4971700;28;20453;-74
2023/05/04 21:53:02;;;;;;;17.30;15.90;;;17.50;97.40;;;;;;4968993;28;20454;-73
2023/05/04 21:55:29;;;;;;;16.23;15.30;;;17.40;97.50;;;;;;4971579;28;20510;-73
2023/05/04 21:57:56;;;;;;;16.47;15.57;;;17.40;97.70;;;;;;4971605;28;20448;-73
2023/05/04 22:00:23;;;;;;;16.77;15.70;;;17.40;97.80;;;;;;4968597;28;20456;-73
2023/05/04 22:02:49;;;;;;;17.50;16.23;;;17.40;97.90;;;;;;4970704;28;20447;-73
2023/05/04 22:05:16;;;;;;;18.03;16.93;;;17.30;98.00;;;;;;4970843;28;20451;-73
2023/05/04 22:07:44;;;;;;;18.63;17.30;;;17.30;98.10;;;;;;4968339;28;20469;-73
2023/05/04 22:10:12;;;;;;;17.40;16.30;;;17.30;98.20;;;;;;4970610;28;20796;-72
2023/05/04 22:12:39;;;;;;;17.50;16.40;;;17.30;98.20;;;;;;4970606;28;20476;-73
2023/05/04 22:15:09;;;;;;;17.67;16.40;;;17.30;98.20;;;;;;4970488;28;20952;-74
2023/05/04 22:17:35;;;;;;;18.47;17.30;;;17.30;98.00;;;;;;4970429;28;20455;-74
2023/05/04 22:20:02;;;;;;;16.80;15.60;;;17.30;98.00;;;;;;4970567;28;20455;-74
2023/05/04 22:22:29;;;;;;;16.67;15.57;;;17.30;98.20;;;;;;4970304;28;20448;-75
2023/05/04 22:24:57;;;;;;;16.30;15.40;;;17.20;98.20;;;;;;4970276;28;20458;-74
2023/05/04 22:27:23;;;;;;;18.10;16.60;;;17.20;98.40;;;;;;4970270;28;20476;-74
2023/05/04 22:29:50;;;;;;;16.90;15.70;;;17.10;98.50;;;;;;4970442;28;20886;-75
2023/05/04 22:32:17;;;;;;;17.23;16.23;;;17.10;98.80;;;;;;4970167;28;20543;-74
2023/05/04 22:34:45;;;;;;;18.10;17.00;;;17.00;98.90;;;;;;4970154;28;20448;-74
2023/05/04 22:37:12;;;;;;;17.17;16.17;;;17.00;99.00;;;;;;4970048;28;20472;-74
2023/05/04 22:39:38;;;;;;;18.27;17.17;;;17.00;99.10;;;;;;4970110;28;20451;-74
2023/05/04 22:42:07;;;;;;;16.20;15.00;;;16.90;99.50;;;;;;4970079;28;20586;-74
2023/05/04 22:44:33;;;;;;;17.60;16.40;;;16.90;99.90;;;;;;4970102;28;20460;-74
2023/05/04 22:47:00;;;;;;;16.23;15.33;;;16.80;99.90;;;;;;4969813;28;20607;-74
2023/05/04 22:49:27;;;;;;;16.87;15.87;;;16.80;99.90;;;;;;4969781;28;20562;-73
2023/05/04 22:51:54;;;;;;;17.33;16.23;;;16.70;99.90;;;;;;4970334;28;20447;-74
2023/05/04 22:54:20;;;;;;;17.50;16.50;;;16.60;99.90;;;;;;4969938;28;20439;-74
2023/05/04 22:56:47;;;;;;;16.50;15.27;;;16.50;99.90;;;;;;4969794;28;20448;-73
2023/05/04 22:59:15;;;;;;;16.10;15.10;;;16.40;99.90;;;;;;4969673;28;20451;-74
2023/05/04 23:01:42;;;;;;;15.00;14.00;;;16.30;99.90;;;;;;4967124;28;20495;-74
2023/05/04 23:04:10;;;;;;;16.60;15.50;;;16.30;99.90;;;;;;4970643;28;20451;-73
2023/05/04 23:06:37;;;;;;;18.50;17.00;;;16.30;99.90;;;;;;4973650;28;20458;-73
2023/05/04 23:09:04;;;;;;;20.37;18.43;;;16.30;99.90;;;;;;4968906;28;20513;-72
2023/05/04 23:11:31;;;;;;;19.47;18.33;;;16.20;99.90;;;;;;4969979;28;20878;-73
2023/05/04 23:13:58;;;;;;;19.80;17.97;;;16.10;99.90;;;;;;4969692;28;20490;-73
2023/05/04 23:16:26;;;;;;;18.90;17.47;;;16.10;99.90;;;;;;4969757;28;20470;-73
2023/05/04 23:18:52;;;;;;;20.87;19.27;;;16.10;99.90;;;;;;4969685;28;20444;-73
2023/05/04 23:21:19;;;;;;;21.93;20.27;;;16.10;99.90;;;;;;4971385;28;20454;-73
2023/05/04 23:23:46;;;;;;;20.37;18.30;;;16.10;99.90;;;;;;4973546;28;20443;-74
2023/05/04 23:26:12;;;;;;;18.83;17.53;;;16.10;99.90;;;;;;4973298;28;20455;-73
2023/05/04 23:28:39;;;;;;;21.73;19.83;;;16.10;99.90;;;;;;4973421;28;20490;-74
2023/05/04 23:31:06;;;;;;;20.67;19.17;;;16.10;99.90;;;;;;4973511;28;20455;-73
2023/05/04 23:33:34;;;;;;;21.43;19.80;;;16.10;99.90;;;;;;4973308;28;20448;-74
2023/05/04 23:36:01;;;;;;;20.80;19.20;;;16.10;99.90;;;;;;4973459;28;20443;-73
2023/05/04 23:38:27;;;;;;;23.57;21.63;;;16.10;99.90;;;;;;4973507;28;20451;-73
2023/05/04 23:40:54;;;;;;;23.23;21.60;;;16.10;99.90;;;;;;4973517;28;20479;-73
2023/05/04 23:43:22;;;;;;;21.57;19.57;;;16.10;99.90;;;;;;4973464;28;20483;-74
2023/05/04 23:45:48;;;;;;;22.23;20.73;;;16.10;99.90;;;;;;4973357;28;20534;-73
2023/05/04 23:48:15;;;;;;;21.13;19.53;;;16.10;99.90;;;;;;4973406;28;20487;-73
2023/05/04 23:50:53;;;;;;;20.77;18.97;;;16.20;99.90;;;;;;4973381;28;20546;-73
2023/05/04 23:53:20;;;;;;;20.87;19.13;;;16.20;99.90;;;;;;4973693;28;20529;-73
2023/05/04 23:55:46;;;;;;;22.27;20.47;;;16.20;99.90;;;;;;4973557;28;20791;-73
2023/05/04 23:58:13;;;;;;;20.17;18.77;;;16.30;99.90;;;;;;4973391;28;20780;-73
